sensor_id;sensor_type;location;lat;lon;timestamp;temperature;humidity
29539;DHT22;16482;51.046;4.498;2023-04-24T00:00:04;23.30;38.90
29539;DHT22;16482;51.046;4.498;2023-04-24T00:02:38;23.30;38.80
29539;DHT22;16482;51.046;4.498;2023-04-24T00:05:06;23.30;38.80
29539;DHT22;16482;51.046;4.498;2023-04-24T00:07:32;23.20;38.80
29539;DHT22;16482;51.046;4.498;2023-04-24T00:10:01;23.30;38.80
29539;DHT22;16482;51.046;4.498;2023-04-24T00:12:33;23.30;38.80
29539;DHT22;16482;51.046;4.498;2023-04-24T00:15:02;23.30;38.70
29539;DHT22;16482;51.046;4.498;2023-04-24T00:17:34;23.20;38.70
29539;DHT22;16482;51.046;4.498;2023-04-24T00:20:03;23.20;38.70
29539;DHT22;16482;51.046;4.498;2023-04-24T00:22:33;23.20;38.70
29539;DHT22;16482;51.046;4.498;2023-04-24T00:25:02;23.20;38.80
29539;DHT22;16482;51.046;4.498;2023-04-24T00:27:37;23.20;38.80
29539;DHT22;16482;51.046;4.498;2023-04-24T00:30:04;23.20;38.90
29539;DHT22;16482;51.046;4.498;2023-04-24T00:32:30;23.10;38.90
29539;DHT22;16482;51.046;4.498;2023-04-24T00:35:05;23.10;39.00
29539;DHT22;16482;51.046;4.498;2023-04-24T00:37:34;23.10;39.10
29539;DHT22;16482;51.046;4.498;2023-04-24T00:40:03;23.10;39.10
29539;DHT22;16482;51.046;4.498;2023-04-24T00:42:38;23.10;39.60
29539;DHT22;16482;51.046;4.498;2023-04-24T00:45:06;23.10;39.00
29539;DHT22;16482;51.046;4.498;2023-04-24T00:47:33;23.10;39.00
29539;DHT22;16482;51.046;4.498;2023-04-24T00:50:03;23.10;39.00
29539;DHT22;16482;51.046;4.498;2023-04-24T00:52:38;23.10;39.00
29539;DHT22;16482;51.046;4.498;2023-04-24T00:55:06;23.10;38.90
29539;DHT22;16482;51.046;4.498;2023-04-24T00:57:32;23.10;39.00
29539;DHT22;16482;51.046;4.498;2023-04-24T01:00:06;23.10;39.00
29539;DHT22;16482;51.046;4.498;2023-04-24T01:02:37;23.10;38.90
29539;DHT22;16482;51.046;4.498;2023-04-24T01:05:07;23.00;38.90
29539;DHT22;16482;51.046;4.498;2023-04-24T01:07:34;23.00;39.00
29539;DHT22;16482;51.046;4.498;2023-04-24T01:10:08;23.00;38.90
29539;DHT22;16482;51.046;4.498;2023-04-24T01:12:34;23.00;38.80
29539;DHT22;16482;51.046;4.498;2023-04-24T01:15:03;23.00;38.90
29539;DHT22;16482;51.046;4.498;2023-04-24T01:17:29;23.00;38.90
29539;DHT22;16482;51.046;4.498;2023-04-24T01:20:02;23.00;38.80
29539;DHT22;16482;51.046;4.498;2023-04-24T01:22:34;23.10;38.90
29539;DHT22;16482;51.046;4.498;2023-04-24T01:25:03;23.00;38.80
29539;DHT22;16482;51.046;4.498;2023-04-24T01:27:32;23.00;38.80
29539;DHT22;16482;51.046;4.498;2023-04-24T01:30:04;23.00;38.90
29539;DHT22;16482;51.046;4.498;2023-04-24T01:32:33;23.00;38.80
29539;DHT22;16482;51.046;4.498;2023-04-24T01:35:02;23.00;38.90
29539;DHT22;16482;51.046;4.498;2023-04-24T01:37:31;23.00;38.90
29539;DHT22;16482;51.046;4.498;2023-04-24T01:40:07;23.00;38.90
29539;DHT22;16482;51.046;4.498;2023-04-24T01:42:34;23.00;38.90
29539;DHT22;16482;51.046;4.498;2023-04-24T01:45:02;23.00;38.90
29539;DHT22;16482;51.046;4.498;2023-04-24T01:47:33;23.00;38.90
29539;DHT22;16482;51.046;4.498;2023-04-24T01:50:08;22.90;38.90
29539;DHT22;16482;51.046;4.498;2023-04-24T01:52:34;23.00;38.90
29539;DHT22;16482;51.046;4.498;2023-04-24T01:55:04;22.90;38.90
29539;DHT22;16482;51.046;4.498;2023-04-24T01:57:33;22.90;39.00
29539;DHT22;16482;51.046;4.498;2023-04-24T02:00:02;22.90;39.00
29539;DHT22;16482;51.046;4.498;2023-04-24T02:02:30;22.90;39.00
29539;DHT22;16482;51.046;4.498;2023-04-24T02:05:06;22.90;39.00
29539;DHT22;16482;51.046;4.498;2023-04-24T02:07:33;22.90;39.00
29539;DHT22;16482;51.046;4.498;2023-04-24T02:10:02;22.90;39.00
29539;DHT22;16482;51.046;4.498;2023-04-24T02:12:32;22.90;39.60
29539;DHT22;16482;51.046;4.498;2023-04-24T02:15:07;22.80;38.90
29539;DHT22;16482;51.046;4.498;2023-04-24T02:17:33;22.90;38.90
29539;DHT22;16482;51.046;4.498;2023-04-24T02:20:02;22.90;39.00
29539;DHT22;16482;51.046;4.498;2023-04-24T02:22:38;22.80;38.90
29539;DHT22;16482;51.046;4.498;2023-04-24T02:25:04;22.80;38.90
29539;DHT22;16482;51.046;4.498;2023-04-24T02:27:30;22.90;39.00
29539;DHT22;16482;51.046;4.498;2023-04-24T02:30:04;22.90;39.10
29539;DHT22;16482;51.046;4.498;2023-04-24T02:32:33;22.90;39.00
29539;DHT22;16482;51.046;4.498;2023-04-24T02:35:08;22.80;39.00
29539;DHT22;16482;51.046;4.498;2023-04-24T02:37:34;22.80;39.10
29539;DHT22;16482;51.046;4.498;2023-04-24T02:40:09;22.80;39.10
29539;DHT22;16482;51.046;4.498;2023-04-24T02:42:36;22.80;39.20
29539;DHT22;16482;51.046;4.498;2023-04-24T02:45:04;22.70;39.20
29539;DHT22;16482;51.046;4.498;2023-04-24T02:47:33;22.70;39.20
29539;DHT22;16482;51.046;4.498;2023-04-24T02:50:07;22.80;39.20
29539;DHT22;16482;51.046;4.498;2023-04-24T02:52:35;22.70;39.20
29539;DHT22;16482;51.046;4.498;2023-04-24T02:55:01;22.70;39.20
29539;DHT22;16482;51.046;4.498;2023-04-24T02:57:45;22.80;39.30
29539;DHT22;16482;51.046;4.498;2023-04-24T03:00:11;22.70;39.20
29539;DHT22;16482;51.046;4.498;2023-04-24T03:02:38;22.70;39.30
29539;DHT22;16482;51.046;4.498;2023-04-24T03:05:05;22.70;39.20
29539;DHT22;16482;51.046;4.498;2023-04-24T03:07:33;22.70;39.20
29539;DHT22;16482;51.046;4.498;2023-04-24T03:10:07;22.70;39.20
29539;DHT22;16482;51.046;4.498;2023-04-24T03:12:36;22.70;39.20
29539;DHT22;16482;51.046;4.498;2023-04-24T03:15:02;22.70;39.30
29539;DHT22;16482;51.046;4.498;2023-04-24T03:17:28;22.70;39.30
29539;DHT22;16482;51.046;4.498;2023-04-24T03:20:03;22.70;39.30
29539;DHT22;16482;51.046;4.498;2023-04-24T03:22:33;22.70;39.40
29539;DHT22;16482;51.046;4.498;2023-04-24T03:25:07;22.80;39.30
29539;DHT22;16482;51.046;4.498;2023-04-24T03:27:37;22.70;39.30
29539;DHT22;16482;51.046;4.498;2023-04-24T03:30:06;22.70;39.40
29539;DHT22;16482;51.046;4.498;2023-04-24T03:32:35;22.70;39.50
29539;DHT22;16482;51.046;4.498;2023-04-24T03:35:04;22.70;39.50
29539;DHT22;16482;51.046;4.498;2023-04-24T03:37:39;22.70;39.50
29539;DHT22;16482;51.046;4.498;2023-04-24T03:40:06;22.70;39.40
29539;DHT22;16482;51.046;4.498;2023-04-24T03:42:35;22.70;39.60
29539;DHT22;16482;51.046;4.498;2023-04-24T03:45:04;22.70;39.40
29539;DHT22;16482;51.046;4.498;2023-04-24T03:47:37;22.70;39.50
29539;DHT22;16482;51.046;4.498;2023-04-24T03:50:03;22.70;39.50
29539;DHT22;16482;51.046;4.498;2023-04-24T03:52:34;22.70;39.50
29539;DHT22;16482;51.046;4.498;2023-04-24T03:55:03;22.70;39.50
29539;DHT22;16482;51.046;4.498;2023-04-24T03:57:36;22.70;39.50
29539;DHT22;16482;51.046;4.498;2023-04-24T04:00:05;22.70;39.50
29539;DHT22;16482;51.046;4.498;2023-04-24T04:02:39;22.70;39.50
29539;DHT22;16482;51.046;4.498;2023-04-24T04:05:05;22.70;39.60
29539;DHT22;16482;51.046;4.498;2023-04-24T04:07:38;22.70;39.50
29539;DHT22;16482;51.046;4.498;2023-04-24T04:10:05;22.70;39.50
29539;DHT22;16482;51.046;4.498;2023-04-24T04:12:32;22.60;39.50
29539;DHT22;16482;51.046;4.498;2023-04-24T04:15:06;22.60;39.40
29539;DHT22;16482;51.046;4.498;2023-04-24T04:17:35;22.70;39.50
29539;DHT22;16482;51.046;4.498;2023-04-24T04:20:04;22.70;39.50
29539;DHT22;16482;51.046;4.498;2023-04-24T04:22:34;22.60;39.40
29539;DHT22;16482;51.046;4.498;2023-04-24T04:25:07;22.70;39.40
29539;DHT22;16482;51.046;4.498;2023-04-24T04:27:36;22.70;39.40
29539;DHT22;16482;51.046;4.498;2023-04-24T04:30:05;22.70;39.40
29539;DHT22;16482;51.046;4.498;2023-04-24T04:32:34;22.60;39.40
29539;DHT22;16482;51.046;4.498;2023-04-24T04:35:03;22.60;39.40
29539;DHT22;16482;51.046;4.498;2023-04-24T04:37:37;22.60;39.40
29539;DHT22;16482;51.046;4.498;2023-04-24T04:40:04;22.60;39.40
29539;DHT22;16482;51.046;4.498;2023-04-24T04:42:35;22.60;39.30
29539;DHT22;16482;51.046;4.498;2023-04-24T04:45:09;22.70;39.30
29539;DHT22;16482;51.046;4.498;2023-04-24T04:47:38;22.70;39.30
29539;DHT22;16482;51.046;4.498;2023-04-24T04:50:05;22.60;39.20
29539;DHT22;16482;51.046;4.498;2023-04-24T04:52:33;22.60;39.40
29539;DHT22;16482;51.046;4.498;2023-04-24T04:55:08;22.60;39.40
29539;DHT22;16482;51.046;4.498;2023-04-24T04:57:34;22.70;39.40
29539;DHT22;16482;51.046;4.498;2023-04-24T05:00:03;22.60;39.30
29539;DHT22;16482;51.046;4.498;2023-04-24T05:02:40;22.70;39.40
29539;DHT22;16482;51.046;4.498;2023-04-24T05:05:06;22.70;39.30
29539;DHT22;16482;51.046;4.498;2023-04-24T05:07:33;22.80;39.40
29539;DHT22;16482;51.046;4.498;2023-04-24T05:10:09;22.80;39.40
29539;DHT22;16482;51.046;4.498;2023-04-24T05:12:39;22.80;39.30
29539;DHT22;16482;51.046;4.498;2023-04-24T05:15:05;22.90;39.30
29539;DHT22;16482;51.046;4.498;2023-04-24T05:17:34;23.00;39.20
29539;DHT22;16482;51.046;4.498;2023-04-24T05:20:03;23.00;39.20
29539;DHT22;16482;51.046;4.498;2023-04-24T05:22:33;23.10;39.10
29539;DHT22;16482;51.046;4.498;2023-04-24T05:25:07;23.10;39.00
29539;DHT22;16482;51.046;4.498;2023-04-24T05:27:35;23.20;39.00
29539;DHT22;16482;51.046;4.498;2023-04-24T05:30:04;23.20;38.90
29539;DHT22;16482;51.046;4.498;2023-04-24T05:32:33;23.20;38.80
29539;DHT22;16482;51.046;4.498;2023-04-24T05:35:07;23.30;38.80
29539;DHT22;16482;51.046;4.498;2023-04-24T05:37:33;23.40;38.70
29539;DHT22;16482;51.046;4.498;2023-04-24T05:40:09;23.40;38.60
29539;DHT22;16482;51.046;4.498;2023-04-24T05:42:35;23.50;38.50
29539;DHT22;16482;51.046;4.498;2023-04-24T05:45:10;23.50;38.50
29539;DHT22;16482;51.046;4.498;2023-04-24T05:47:42;23.60;38.50
29539;DHT22;16482;51.046;4.498;2023-04-24T05:50:10;23.60;38.40
29539;DHT22;16482;51.046;4.498;2023-04-24T05:52:36;23.60;38.30
29539;DHT22;16482;51.046;4.498;2023-04-24T05:55:04;23.60;38.30
29539;DHT22;16482;51.046;4.498;2023-04-24T05:57:39;23.60;38.20
29539;DHT22;16482;51.046;4.498;2023-04-24T06:00:06;23.60;38.20
29539;DHT22;16482;51.046;4.498;2023-04-24T06:02:33;23.60;38.00
29539;DHT22;16482;51.046;4.498;2023-04-24T06:05:02;23.70;38.10
29539;DHT22;16482;51.046;4.498;2023-04-24T06:07:35;23.70;38.10
29539;DHT22;16482;51.046;4.498;2023-04-24T06:10:09;23.70;38.00
29539;DHT22;16482;51.046;4.498;2023-04-24T06:12:39;23.70;38.00
29539;DHT22;16482;51.046;4.498;2023-04-24T06:15:05;23.70;37.90
29539;DHT22;16482;51.046;4.498;2023-04-24T06:17:31;23.70;37.90
29539;DHT22;16482;51.046;4.498;2023-04-24T06:20:05;23.80;38.00
29539;DHT22;16482;51.046;4.498;2023-04-24T06:22:32;23.80;37.90
29539;DHT22;16482;51.046;4.498;2023-04-24T06:25:05;23.80;38.00
29539;DHT22;16482;51.046;4.498;2023-04-24T06:27:39;23.80;37.90
29539;DHT22;16482;51.046;4.498;2023-04-24T06:30:05;23.80;37.90
29539;DHT22;16482;51.046;4.498;2023-04-24T06:32:34;23.80;37.90
29539;DHT22;16482;51.046;4.498;2023-04-24T06:35:02;23.80;37.90
29539;DHT22;16482;51.046;4.498;2023-04-24T06:37:36;23.80;37.80
29539;DHT22;16482;51.046;4.498;2023-04-24T06:40:04;23.90;37.90
29539;DHT22;16482;51.046;4.498;2023-04-24T06:42:36;23.80;37.80
29539;DHT22;16482;51.046;4.498;2023-04-24T06:45:05;23.80;37.80
29539;DHT22;16482;51.046;4.498;2023-04-24T06:47:40;23.80;37.80
29539;DHT22;16482;51.046;4.498;2023-04-24T06:50:07;23.80;37.80
29539;DHT22;16482;51.046;4.498;2023-04-24T06:52:36;23.80;37.90
29539;DHT22;16482;51.046;4.498;2023-04-24T06:55:05;23.80;37.80
29539;DHT22;16482;51.046;4.498;2023-04-24T06:57:34;23.80;37.80
29539;DHT22;16482;51.046;4.498;2023-04-24T07:00:09;23.80;37.80
29539;DHT22;16482;51.046;4.498;2023-04-24T07:02:35;23.90;37.80
29539;DHT22;16482;51.046;4.498;2023-04-24T07:05:03;23.80;37.80
29539;DHT22;16482;51.046;4.498;2023-04-24T07:07:37;23.80;38.00
29539;DHT22;16482;51.046;4.498;2023-04-24T07:10:06;23.80;38.10
29539;DHT22;16482;51.046;4.498;2023-04-24T07:12:39;23.80;38.00
29539;DHT22;16482;51.046;4.498;2023-04-24T07:15:06;23.80;37.90
29539;DHT22;16482;51.046;4.498;2023-04-24T07:17:34;23.80;37.90
29539;DHT22;16482;51.046;4.498;2023-04-24T07:20:02;23.90;37.80
29539;DHT22;16482;51.046;4.498;2023-04-24T07:22:37;23.90;37.90
29539;DHT22;16482;51.046;4.498;2023-04-24T07:25:04;23.90;37.80
29539;DHT22;16482;51.046;4.498;2023-04-24T07:27:39;23.90;37.80
29539;DHT22;16482;51.046;4.498;2023-04-24T07:30:05;23.90;38.20
29539;DHT22;16482;51.046;4.498;2023-04-24T07:32:39;23.80;37.90
29539;DHT22;16482;51.046;4.498;2023-04-24T07:35:06;23.80;37.80
29539;DHT22;16482;51.046;4.498;2023-04-24T07:37:35;23.80;37.80
29539;DHT22;16482;51.046;4.498;2023-04-24T07:40:04;23.80;37.80
29539;DHT22;16482;51.046;4.498;2023-04-24T07:42:33;23.80;37.70
29539;DHT22;16482;51.046;4.498;2023-04-24T07:45:03;23.80;37.80
29539;DHT22;16482;51.046;4.498;2023-04-24T07:47:36;23.80;37.80
29539;DHT22;16482;51.046;4.498;2023-04-24T07:50:06;23.80;37.80
29539;DHT22;16482;51.046;4.498;2023-04-24T07:52:35;23.80;37.80
29539;DHT22;16482;51.046;4.498;2023-04-24T07:55:04;23.80;37.90
29539;DHT22;16482;51.046;4.498;2023-04-24T07:57:32;23.80;37.80
29539;DHT22;16482;51.046;4.498;2023-04-24T08:00:06;23.80;37.80
29539;DHT22;16482;51.046;4.498;2023-04-24T08:02:35;23.70;38.40
29539;DHT22;16482;51.046;4.498;2023-04-24T08:05:09;23.70;37.90
29539;DHT22;16482;51.046;4.498;2023-04-24T08:07:35;23.70;37.90
29539;DHT22;16482;51.046;4.498;2023-04-24T08:10:10;23.70;37.90
29539;DHT22;16482;51.046;4.498;2023-04-24T08:12:37;23.70;37.90
29539;DHT22;16482;51.046;4.498;2023-04-24T08:15:04;23.70;37.90
29539;DHT22;16482;51.046;4.498;2023-04-24T08:17:37;23.70;37.90
29539;DHT22;16482;51.046;4.498;2023-04-24T08:20:08;23.70;37.90
29539;DHT22;16482;51.046;4.498;2023-04-24T08:22:39;23.70;38.00
29539;DHT22;16482;51.046;4.498;2023-04-24T08:25:06;23.70;38.00
29539;DHT22;16482;51.046;4.498;2023-04-24T08:27:35;23.70;38.00
29539;DHT22;16482;51.046;4.498;2023-04-24T08:30:03;23.70;37.90
29539;DHT22;16482;51.046;4.498;2023-04-24T08:32:38;23.70;38.00
29539;DHT22;16482;51.046;4.498;2023-04-24T08:35:04;23.70;37.90
29539;DHT22;16482;51.046;4.498;2023-04-24T08:37:33;23.70;37.80
29539;DHT22;16482;51.046;4.498;2023-04-24T08:40:11;23.70;37.90
29539;DHT22;16482;51.046;4.498;2023-04-24T08:42:39;23.80;38.00
29539;DHT22;16482;51.046;4.498;2023-04-24T08:45:05;23.80;38.00
29539;DHT22;16482;51.046;4.498;2023-04-24T08:47:35;23.80;37.90
29539;DHT22;16482;51.046;4.498;2023-04-24T08:50:06;23.80;37.90
29539;DHT22;16482;51.046;4.498;2023-04-24T08:52:33;23.80;37.90
29539;DHT22;16482;51.046;4.498;2023-04-24T08:55:09;23.80;38.00
29539;DHT22;16482;51.046;4.498;2023-04-24T08:57:35;23.80;38.10
29539;DHT22;16482;51.046;4.498;2023-04-24T09:00:04;23.80;38.30
29539;DHT22;16482;51.046;4.498;2023-04-24T09:02:36;23.70;38.30
29539;DHT22;16482;51.046;4.498;2023-04-24T09:05:06;23.70;38.30
29539;DHT22;16482;51.046;4.498;2023-04-24T09:07:34;23.80;38.50
29539;DHT22;16482;51.046;4.498;2023-04-24T09:10:04;23.70;38.50
29539;DHT22;16482;51.046;4.498;2023-04-24T09:12:39;23.80;38.60
29539;DHT22;16482;51.046;4.498;2023-04-24T09:15:08;23.80;38.60
29539;DHT22;16482;51.046;4.498;2023-04-24T09:17:37;23.80;38.50
29539;DHT22;16482;51.046;4.498;2023-04-24T09:20:06;23.80;38.50
29539;DHT22;16482;51.046;4.498;2023-04-24T09:22:35;23.80;38.60
29539;DHT22;16482;51.046;4.498;2023-04-24T09:25:08;23.80;38.60
29539;DHT22;16482;51.046;4.498;2023-04-24T09:27:42;23.80;38.60
29539;DHT22;16482;51.046;4.498;2023-04-24T09:30:12;23.80;38.60
29539;DHT22;16482;51.046;4.498;2023-04-24T09:32:38;23.90;38.60
29539;DHT22;16482;51.046;4.498;2023-04-24T09:35:11;23.90;38.60
29539;DHT22;16482;51.046;4.498;2023-04-24T09:37:41;23.90;38.40
29539;DHT22;16482;51.046;4.498;2023-04-24T09:40:15;23.90;38.40
29539;DHT22;16482;51.046;4.498;2023-04-24T09:45:12;23.90;38.50
29539;DHT22;16482;51.046;4.498;2023-04-24T09:47:38;23.90;38.40
29539;DHT22;16482;51.046;4.498;2023-04-24T09:50:16;23.90;38.30
29539;DHT22;16482;51.046;4.498;2023-04-24T09:52:47;23.90;38.30
29539;DHT22;16482;51.046;4.498;2023-04-24T09:55:21;23.90;38.30
29539;DHT22;16482;51.046;4.498;2023-04-24T09:57:51;23.90;38.30
29539;DHT22;16482;51.046;4.498;2023-04-24T10:00:21;23.90;38.30
29539;DHT22;16482;51.046;4.498;2023-04-24T10:02:50;23.90;38.10
29539;DHT22;16482;51.046;4.498;2023-04-24T10:05:17;23.90;38.00
29539;DHT22;16482;51.046;4.498;2023-04-24T10:07:43;23.90;37.90
29539;DHT22;16482;51.046;4.498;2023-04-24T10:10:10;23.90;37.80
29539;DHT22;16482;51.046;4.498;2023-04-24T10:12:37;23.90;37.70
29539;DHT22;16482;51.046;4.498;2023-04-24T10:15:06;23.90;37.70
29539;DHT22;16482;51.046;4.498;2023-04-24T10:17:35;23.90;37.80
29539;DHT22;16482;51.046;4.498;2023-04-24T10:20:05;23.90;37.90
29539;DHT22;16482;51.046;4.498;2023-04-24T10:22:35;23.90;38.00
29539;DHT22;16482;51.046;4.498;2023-04-24T10:25:11;23.90;37.80
29539;DHT22;16482;51.046;4.498;2023-04-24T10:27:38;23.80;37.70
29539;DHT22;16482;51.046;4.498;2023-04-24T10:30:05;23.80;37.80
29539;DHT22;16482;51.046;4.498;2023-04-24T10:32:32;23.80;37.60
29539;DHT22;16482;51.046;4.498;2023-04-24T10:35:06;23.80;37.60
29539;DHT22;16482;51.046;4.498;2023-04-24T10:37:54;23.80;37.50
29539;DHT22;16482;51.046;4.498;2023-04-24T10:40:27;23.80;37.30
29539;DHT22;16482;51.046;4.498;2023-04-24T10:42:56;23.80;37.40
29539;DHT22;16482;51.046;4.498;2023-04-24T10:45:23;23.70;37.30
29539;DHT22;16482;51.046;4.498;2023-04-24T10:48:01;23.70;37.30
29539;DHT22;16482;51.046;4.498;2023-04-24T10:50:45;23.80;37.30
29539;DHT22;16482;51.046;4.498;2023-04-24T10:53:17;23.80;37.20
29539;DHT22;16482;51.046;4.498;2023-04-24T10:58:44;23.70;37.20
29539;DHT22;16482;51.046;4.498;2023-04-24T11:01:31;23.70;37.10
29539;DHT22;16482;51.046;4.498;2023-04-24T11:04:02;23.70;36.90
29539;DHT22;16482;51.046;4.498;2023-04-24T11:06:30;23.70;36.90
29539;DHT22;16482;51.046;4.498;2023-04-24T11:09:13;23.70;37.00
29539;DHT22;16482;51.046;4.498;2023-04-24T11:11:47;23.70;36.90
29539;DHT22;16482;51.046;4.498;2023-04-24T11:14:16;23.70;36.80
29539;DHT22;16482;51.046;4.498;2023-04-24T11:16:52;23.70;36.80
29539;DHT22;16482;51.046;4.498;2023-04-24T11:21:49;23.70;36.50
29539;DHT22;16482;51.046;4.498;2023-04-24T11:27:05;23.70;36.80
29539;DHT22;16482;51.046;4.498;2023-04-24T11:29:47;23.70;36.80
29539;DHT22;16482;51.046;4.498;2023-04-24T11:32:34;23.70;36.80
29539;DHT22;16482;51.046;4.498;2023-04-24T11:35:18;23.70;36.80
29539;DHT22;16482;51.046;4.498;2023-04-24T11:37:47;23.80;36.80
29539;DHT22;16482;51.046;4.498;2023-04-24T11:40:18;23.80;36.80
29539;DHT22;16482;51.046;4.498;2023-04-24T11:42:47;23.80;36.80
29539;DHT22;16482;51.046;4.498;2023-04-24T11:45:15;23.80;36.70
29539;DHT22;16482;51.046;4.498;2023-04-24T11:47:42;23.80;36.70
29539;DHT22;16482;51.046;4.498;2023-04-24T11:50:12;23.80;36.70
29539;DHT22;16482;51.046;4.498;2023-04-24T11:52:45;23.80;36.70
29539;DHT22;16482;51.046;4.498;2023-04-24T11:57:49;23.80;36.60
29539;DHT22;16482;51.046;4.498;2023-04-24T12:00:20;23.80;36.50
29539;DHT22;16482;51.046;4.498;2023-04-24T12:02:46;23.80;36.40
29539;DHT22;16482;51.046;4.498;2023-04-24T12:05:29;23.80;37.20
29539;DHT22;16482;51.046;4.498;2023-04-24T12:07:57;23.80;36.60
29539;DHT22;16482;51.046;4.498;2023-04-24T12:10:24;23.80;36.60
29539;DHT22;16482;51.046;4.498;2023-04-24T12:12:51;23.80;36.40
29539;DHT22;16482;51.046;4.498;2023-04-24T12:15:18;23.80;36.30
29539;DHT22;16482;51.046;4.498;2023-04-24T12:17:45;23.80;36.10
29539;DHT22;16482;51.046;4.498;2023-04-24T12:20:12;23.80;36.20
29539;DHT22;16482;51.046;4.498;2023-04-24T12:22:52;23.80;36.10
29539;DHT22;16482;51.046;4.498;2023-04-24T12:25:23;23.80;36.30
29539;DHT22;16482;51.046;4.498;2023-04-24T12:27:55;23.90;36.40
29539;DHT22;16482;51.046;4.498;2023-04-24T12:30:43;23.80;36.40
29539;DHT22;16482;51.046;4.498;2023-04-24T12:33:10;23.80;36.30
29539;DHT22;16482;51.046;4.498;2023-04-24T12:35:36;23.90;36.40
29539;DHT22;16482;51.046;4.498;2023-04-24T12:38:13;23.80;36.30
29539;DHT22;16482;51.046;4.498;2023-04-24T12:40:40;23.80;36.40
29539;DHT22;16482;51.046;4.498;2023-04-24T12:43:14;23.80;36.30
29539;DHT22;16482;51.046;4.498;2023-04-24T12:45:41;23.90;36.30
29539;DHT22;16482;51.046;4.498;2023-04-24T12:48:07;23.80;36.40
29539;DHT22;16482;51.046;4.498;2023-04-24T12:50:33;23.80;36.20
29539;DHT22;16482;51.046;4.498;2023-04-24T12:52:59;23.80;36.30
29539;DHT22;16482;51.046;4.498;2023-04-24T12:55:25;23.80;36.40
29539;DHT22;16482;51.046;4.498;2023-04-24T12:57:51;23.80;36.40
29539;DHT22;16482;51.046;4.498;2023-04-24T13:00:18;23.80;36.30
29539;DHT22;16482;51.046;4.498;2023-04-24T13:02:44;23.80;36.20
29539;DHT22;16482;51.046;4.498;2023-04-24T13:05:10;23.80;35.90
29539;DHT22;16482;51.046;4.498;2023-04-24T13:07:37;23.80;36.30
29539;DHT22;16482;51.046;4.498;2023-04-24T13:10:06;23.80;35.80
29539;DHT22;16482;51.046;4.498;2023-04-24T13:12:35;23.80;36.00
29539;DHT22;16482;51.046;4.498;2023-04-24T13:15:05;23.80;35.90
29539;DHT22;16482;51.046;4.498;2023-04-24T13:17:40;23.90;35.70
29539;DHT22;16482;51.046;4.498;2023-04-24T13:20:07;23.90;35.80
29539;DHT22;16482;51.046;4.498;2023-04-24T13:22:36;23.90;35.70
29539;DHT22;16482;51.046;4.498;2023-04-24T13:25:05;23.80;35.50
29539;DHT22;16482;51.046;4.498;2023-04-24T13:27:32;23.80;35.40
29539;DHT22;16482;51.046;4.498;2023-04-24T13:30:06;23.80;35.50
29539;DHT22;16482;51.046;4.498;2023-04-24T13:32:32;23.80;35.60
29539;DHT22;16482;51.046;4.498;2023-04-24T13:35:08;23.80;35.50
29539;DHT22;16482;51.046;4.498;2023-04-24T13:37:36;23.90;35.40
29539;DHT22;16482;51.046;4.498;2023-04-24T13:40:05;23.80;35.30
29539;DHT22;16482;51.046;4.498;2023-04-24T13:42:35;23.80;35.30
29539;DHT22;16482;51.046;4.498;2023-04-24T13:45:04;23.80;35.60
29539;DHT22;16482;51.046;4.498;2023-04-24T13:47:38;23.70;35.40
29539;DHT22;16482;51.046;4.498;2023-04-24T13:50:07;23.70;35.30
29539;DHT22;16482;51.046;4.498;2023-04-24T13:52:36;23.60;35.10
29539;DHT22;16482;51.046;4.498;2023-04-24T13:55:05;23.60;35.10
29539;DHT22;16482;51.046;4.498;2023-04-24T13:57:39;23.60;35.10
29539;DHT22;16482;51.046;4.498;2023-04-24T14:00:05;23.60;35.00
29539;DHT22;16482;51.046;4.498;2023-04-24T14:02:36;23.60;34.90
29539;DHT22;16482;51.046;4.498;2023-04-24T14:05:09;23.60;34.50
29539;DHT22;16482;51.046;4.498;2023-04-24T14:07:36;23.50;34.40
29539;DHT22;16482;51.046;4.498;2023-04-24T14:10:06;23.50;34.30
29539;DHT22;16482;51.046;4.498;2023-04-24T14:12:41;23.60;34.20
29539;DHT22;16482;51.046;4.498;2023-04-24T14:15:07;23.60;34.00
29539;DHT22;16482;51.046;4.498;2023-04-24T14:17:37;23.50;33.90
29539;DHT22;16482;51.046;4.498;2023-04-24T14:20:05;23.50;33.70
29539;DHT22;16482;51.046;4.498;2023-04-24T14:22:35;23.50;33.60
29539;DHT22;16482;51.046;4.498;2023-04-24T14:25:05;23.60;33.50
29539;DHT22;16482;51.046;4.498;2023-04-24T14:27:40;23.50;33.40
29539;DHT22;16482;51.046;4.498;2023-04-24T14:30:10;23.50;33.60
29539;DHT22;16482;51.046;4.498;2023-04-24T14:32:38;23.50;34.30
29539;DHT22;16482;51.046;4.498;2023-04-24T14:35:05;23.50;33.60
29539;DHT22;16482;51.046;4.498;2023-04-24T14:37:41;23.50;33.50
29539;DHT22;16482;51.046;4.498;2023-04-24T14:40:08;23.60;33.60
29539;DHT22;16482;51.046;4.498;2023-04-24T14:42:37;23.50;33.50
29539;DHT22;16482;51.046;4.498;2023-04-24T14:45:03;23.50;33.40
29539;DHT22;16482;51.046;4.498;2023-04-24T14:47:32;23.50;33.40
29539;DHT22;16482;51.046;4.498;2023-04-24T14:50:07;23.50;33.20
29539;DHT22;16482;51.046;4.498;2023-04-24T14:52:36;23.50;33.10
29539;DHT22;16482;51.046;4.498;2023-04-24T14:55:11;23.50;33.10
29539;DHT22;16482;51.046;4.498;2023-04-24T14:57:37;23.50;33.00
29539;DHT22;16482;51.046;4.498;2023-04-24T15:00:06;23.50;33.00
29539;DHT22;16482;51.046;4.498;2023-04-24T15:02:37;23.50;33.10
29539;DHT22;16482;51.046;4.498;2023-04-24T15:05:07;23.50;33.20
29539;DHT22;16482;51.046;4.498;2023-04-24T15:07:36;23.40;33.30
29539;DHT22;16482;51.046;4.498;2023-04-24T15:10:06;23.40;33.40
29539;DHT22;16482;51.046;4.498;2023-04-24T15:12:39;23.50;33.70
29539;DHT22;16482;51.046;4.498;2023-04-24T15:15:06;23.50;33.60
29539;DHT22;16482;51.046;4.498;2023-04-24T15:17:35;23.40;33.90
29539;DHT22;16482;51.046;4.498;2023-04-24T15:20:04;23.50;33.80
29539;DHT22;16482;51.046;4.498;2023-04-24T15:22:40;23.50;33.90
29539;DHT22;16482;51.046;4.498;2023-04-24T15:25:07;23.50;34.00
29539;DHT22;16482;51.046;4.498;2023-04-24T15:27:42;23.50;33.90
29539;DHT22;16482;51.046;4.498;2023-04-24T15:30:08;23.60;33.90
29539;DHT22;16482;51.046;4.498;2023-04-24T15:32:35;23.50;33.80
29539;DHT22;16482;51.046;4.498;2023-04-24T15:35:08;23.60;34.10
29539;DHT22;16482;51.046;4.498;2023-04-24T15:37:37;23.60;34.00
29539;DHT22;16482;51.046;4.498;2023-04-24T15:40:06;23.70;34.00
29539;DHT22;16482;51.046;4.498;2023-04-24T15:42:34;23.70;34.00
29539;DHT22;16482;51.046;4.498;2023-04-24T15:45:03;23.80;34.10
29539;DHT22;16482;51.046;4.498;2023-04-24T15:47:39;23.80;34.00
29539;DHT22;16482;51.046;4.498;2023-04-24T15:50:05;23.80;34.00
29539;DHT22;16482;51.046;4.498;2023-04-24T15:52:36;23.80;34.10
29539;DHT22;16482;51.046;4.498;2023-04-24T15:55:09;23.90;34.80
29539;DHT22;16482;51.046;4.498;2023-04-24T15:57:35;23.90;34.00
29539;DHT22;16482;51.046;4.498;2023-04-24T16:00:10;23.90;34.10